Main page
METAR-TAF:

METAR-TAF

Airports :

Rijeka Airport

Rijeka, Croatia

latitude: 45-13N, longitude: 014-35E, elevation: 85 m

Current weather observation

The report was made 18 minutes ago, at 00:30 UTC
Wind 4 kt from the East/Southeast
Temperature 11°C
Humidity 87%
Pressure 1023 hPa
Visibility 10 km or more
Few clouds at a height of 2000 ft

METAR: LDRI 180030Z 12004KT 9999 FEW020 11/09 Q1023

Time: 01:48 (00:48 UTC)

Forecast

The report was made 1 hour and 23 minutes ago, at 23:25 UTC
Forecast valid from 18 at 00 UTC to 19 at 00 UTC
Wind 6 kt from the East
Visibility 10 km or more
Scattered clouds at a height of 2000 ft
Broken clouds at a height of 3000 ft

TAF: LDRI 172325Z 1800/1900 09006KT 9999 SCT020 BKN030 TX14/1813Z TN10/1800Z

Weather observations and forecasts of more than 4000 airports (METAR and TAF reports).

The available stations are represented by yellow and red dots on the map.

Hover mouse over dot to see the name of the station.

Then click to see weather observations and forecasts.

To change the map : click on the green buttons with a black cross to zoom in, on the green button with a dash to zoom out, or on the green arrows for adjacent maps.


METAR-TAF: